sensor_id;sensor_type;location;lat;lon;timestamp;pressure;altitude;pressure_sealevel;temperature;humidity
21433;BME280;18592;49.708;10.900;2023-07-13T00:00:54;98366.56;;;27.72;34.41
21433;BME280;18592;49.708;10.900;2023-07-13T00:03:05;98357.72;;;27.70;34.29
21433;BME280;18592;49.708;10.900;2023-07-13T00:05:05;98365.66;;;27.68;34.24
21433;BME280;18592;49.708;10.900;2023-07-13T00:07:07;98364.06;;;27.67;34.00
21433;BME280;18592;49.708;10.900;2023-07-13T00:09:07;98369.22;;;27.65;34.15
21433;BME280;18592;49.708;10.900;2023-07-13T00:11:08;98365.19;;;27.62;34.27
21433;BME280;18592;49.708;10.900;2023-07-13T00:13:10;98370.31;;;27.60;34.49
21433;BME280;18592;49.708;10.900;2023-07-13T00:15:18;98352.25;;;27.58;34.34
21433;BME280;18592;49.708;10.900;2023-07-13T00:17:23;98349.00;;;27.56;34.05
21433;BME280;18592;49.708;10.900;2023-07-13T00:19:24;98343.78;;;27.54;34.17
21433;BME280;18592;49.708;10.900;2023-07-13T00:21:40;98343.69;;;27.51;34.39
21433;BME280;18592;49.708;10.900;2023-07-13T00:23:42;98339.66;;;27.48;34.40
21433;BME280;18592;49.708;10.900;2023-07-13T00:25:42;98339.22;;;27.46;34.23
21433;BME280;18592;49.708;10.900;2023-07-13T00:28:03;98327.91;;;27.43;34.50
21433;BME280;18592;49.708;10.900;2023-07-13T00:30:05;98322.25;;;27.39;34.59
21433;BME280;18592;49.708;10.900;2023-07-13T00:32:06;98322.59;;;27.38;34.41
21433;BME280;18592;49.708;10.900;2023-07-13T00:34:40;98320.88;;;27.33;34.44
21433;BME280;18592;49.708;10.900;2023-07-13T00:36:52;98329.22;;;27.30;34.65
21433;BME280;18592;49.708;10.900;2023-07-13T00:38:54;98325.63;;;27.29;34.48
21433;BME280;18592;49.708;10.900;2023-07-13T00:41:03;98322.28;;;27.24;34.52
21433;BME280;18592;49.708;10.900;2023-07-13T00:43:15;98326.25;;;27.23;34.43
21433;BME280;18592;49.708;10.900;2023-07-13T00:47:24;98328.53;;;27.17;34.71
21433;BME280;18592;49.708;10.900;2023-07-13T00:49:27;98334.88;;;27.14;34.49
21433;BME280;18592;49.708;10.900;2023-07-13T00:51:47;98335.16;;;27.09;34.79
21433;BME280;18592;49.708;10.900;2023-07-13T00:53:51;98334.69;;;27.07;34.59
21433;BME280;18592;49.708;10.900;2023-07-13T00:56:08;98331.38;;;27.01;34.74
21433;BME280;18592;49.708;10.900;2023-07-13T00:58:20;98343.28;;;26.98;34.96
21433;BME280;18592;49.708;10.900;2023-07-13T01:11:19;98352.88;;;26.66;34.83
21433;BME280;18592;49.708;10.900;2023-07-13T01:13:22;98351.25;;;26.65;34.83
21433;BME280;18592;49.708;10.900;2023-07-13T01:15:40;98354.41;;;26.64;35.36
21433;BME280;18592;49.708;10.900;2023-07-13T01:17:44;98359.19;;;26.63;35.20
21433;BME280;18592;49.708;10.900;2023-07-13T01:20:00;98365.50;;;26.60;34.95
21433;BME280;18592;49.708;10.900;2023-07-13T01:22:14;98360.63;;;26.57;35.17
21433;BME280;18592;49.708;10.900;2023-07-13T01:24:19;98358.91;;;26.53;35.08
21433;BME280;18592;49.708;10.900;2023-07-13T01:26:20;98356.00;;;26.49;34.97
21433;BME280;18592;49.708;10.900;2023-07-13T01:28:22;98358.72;;;26.45;35.06
21433;BME280;18592;49.708;10.900;2023-07-13T01:30:22;98360.25;;;26.43;34.94
21433;BME280;18592;49.708;10.900;2023-07-13T01:32:24;98357.38;;;26.39;35.46
21433;BME280;18592;49.708;10.900;2023-07-13T01:34:27;98355.28;;;26.36;35.39
21433;BME280;18592;49.708;10.900;2023-07-13T01:36:27;98354.00;;;26.34;35.43
21433;BME280;18592;49.708;10.900;2023-07-13T01:38:28;98348.34;;;26.30;35.00
21433;BME280;18592;49.708;10.900;2023-07-13T01:40:29;98348.63;;;26.25;35.52
21433;BME280;18592;49.708;10.900;2023-07-13T01:42:31;98348.97;;;26.24;35.40
21433;BME280;18592;49.708;10.900;2023-07-13T01:44:31;98355.28;;;26.21;35.29
21433;BME280;18592;49.708;10.900;2023-07-13T01:46:32;98361.94;;;26.16;35.16
21433;BME280;18592;49.708;10.900;2023-07-13T01:48:32;98348.19;;;26.11;35.22
21433;BME280;18592;49.708;10.900;2023-07-13T01:50:33;98356.13;;;26.09;35.20
21433;BME280;18592;49.708;10.900;2023-07-13T01:52:33;98358.00;;;26.05;35.13
21433;BME280;18592;49.708;10.900;2023-07-13T01:54:34;98367.94;;;26.03;35.53
21433;BME280;18592;49.708;10.900;2023-07-13T01:56:34;98372.59;;;25.99;35.33
21433;BME280;18592;49.708;10.900;2023-07-13T01:58:35;98362.16;;;25.96;35.62
21433;BME280;18592;49.708;10.900;2023-07-13T02:00:35;98368.44;;;25.93;35.46
21433;BME280;18592;49.708;10.900;2023-07-13T02:02:36;98369.50;;;25.88;35.78
21433;BME280;18592;49.708;10.900;2023-07-13T02:04:36;98366.59;;;25.84;35.83
21433;BME280;18592;49.708;10.900;2023-07-13T02:06:46;98374.09;;;25.80;35.91
21433;BME280;18592;49.708;10.900;2023-07-13T02:08:46;98375.13;;;25.76;35.69
21433;BME280;18592;49.708;10.900;2023-07-13T02:10:46;98373.03;;;25.73;35.63
21433;BME280;18592;49.708;10.900;2023-07-13T02:12:48;98380.50;;;25.69;35.86
21433;BME280;18592;49.708;10.900;2023-07-13T02:14:50;98385.97;;;25.65;35.57
21433;BME280;18592;49.708;10.900;2023-07-13T02:16:50;98377.50;;;25.62;35.68
21433;BME280;18592;49.708;10.900;2023-07-13T02:18:52;98379.03;;;25.59;35.74
21433;BME280;18592;49.708;10.900;2023-07-13T02:20:56;98372.88;;;25.54;35.82
21433;BME280;18592;49.708;10.900;2023-07-13T02:33:48;98375.63;;;25.94;34.81
21433;BME280;18592;49.708;10.900;2023-07-13T02:36:00;98376.66;;;25.73;35.30
21433;BME280;18592;49.708;10.900;2023-07-13T02:38:01;98370.66;;;25.59;35.27
21433;BME280;18592;49.708;10.900;2023-07-13T02:40:01;98378.72;;;25.49;35.24
21433;BME280;18592;49.708;10.900;2023-07-13T02:42:08;98385.56;;;25.39;35.80
21433;BME280;18592;49.708;10.900;2023-07-13T02:44:09;98380.56;;;25.33;35.67
21433;BME280;18592;49.708;10.900;2023-07-13T02:46:09;98378.38;;;25.26;35.83
21433;BME280;18592;49.708;10.900;2023-07-13T02:48:10;98388.97;;;25.20;35.86
21433;BME280;18592;49.708;10.900;2023-07-13T02:50:10;98391.19;;;25.15;35.99
21433;BME280;18592;49.708;10.900;2023-07-13T02:52:10;98381.06;;;25.10;36.17
21433;BME280;18592;49.708;10.900;2023-07-13T02:54:11;98390.50;;;25.06;36.05
21433;BME280;18592;49.708;10.900;2023-07-13T02:56:14;98391.56;;;25.01;36.30
21433;BME280;18592;49.708;10.900;2023-07-13T02:58:14;98398.97;;;24.97;36.34
21433;BME280;18592;49.708;10.900;2023-07-13T03:00:18;98398.06;;;24.93;36.37
21433;BME280;18592;49.708;10.900;2023-07-13T03:02:18;98400.25;;;24.88;36.36
21433;BME280;18592;49.708;10.900;2023-07-13T03:04:22;98396.56;;;24.84;36.05
21433;BME280;18592;49.708;10.900;2023-07-13T03:06:22;98404.78;;;24.80;36.42
21433;BME280;18592;49.708;10.900;2023-07-13T03:08:27;98407.78;;;24.75;36.32
21433;BME280;18592;49.708;10.900;2023-07-13T03:10:28;98407.69;;;24.72;36.24
21433;BME280;18592;49.708;10.900;2023-07-13T03:12:29;98406.41;;;24.69;36.53
21433;BME280;18592;49.708;10.900;2023-07-13T03:14:32;98414.63;;;24.66;36.29
21433;BME280;18592;49.708;10.900;2023-07-13T03:16:34;98408.91;;;24.62;36.53
21433;BME280;18592;49.708;10.900;2023-07-13T03:18:35;98418.34;;;24.57;36.25
21433;BME280;18592;49.708;10.900;2023-07-13T03:20:39;98423.81;;;24.54;36.64
21433;BME280;18592;49.708;10.900;2023-07-13T03:22:41;98412.50;;;24.50;36.67
21433;BME280;18592;49.708;10.900;2023-07-13T03:24:42;98419.91;;;24.46;36.47
21433;BME280;18592;49.708;10.900;2023-07-13T03:26:44;98420.16;;;24.41;36.43
21433;BME280;18592;49.708;10.900;2023-07-13T03:28:45;98427.56;;;24.37;36.51
21433;BME280;18592;49.708;10.900;2023-07-13T03:30:59;98430.59;;;24.32;36.81
21433;BME280;18592;49.708;10.900;2023-07-13T03:33:00;98441.25;;;24.30;36.53
21433;BME280;18592;49.708;10.900;2023-07-13T03:35:10;98447.88;;;24.26;36.67
21433;BME280;18592;49.708;10.900;2023-07-13T03:37:10;98457.72;;;24.23;36.63
21433;BME280;18592;49.708;10.900;2023-07-13T03:39:25;98447.59;;;24.19;36.46
21433;BME280;18592;49.708;10.900;2023-07-13T03:41:34;98456.16;;;24.14;36.69
21433;BME280;18592;49.708;10.900;2023-07-13T03:43:34;98453.25;;;24.10;36.69
21433;BME280;18592;49.708;10.900;2023-07-13T03:45:37;98455.59;;;24.08;36.65
21433;BME280;18592;49.708;10.900;2023-07-13T03:47:38;98460.16;;;24.04;36.76
21433;BME280;18592;49.708;10.900;2023-07-13T03:49:39;98462.47;;;24.02;37.02
21433;BME280;18592;49.708;10.900;2023-07-13T03:51:39;98463.97;;;23.99;36.64
21433;BME280;18592;49.708;10.900;2023-07-13T03:53:42;98471.84;;;23.97;37.07
21433;BME280;18592;49.708;10.900;2023-07-13T03:55:44;98480.53;;;23.96;36.80
21433;BME280;18592;49.708;10.900;2023-07-13T03:57:45;98474.03;;;23.92;37.12
21433;BME280;18592;49.708;10.900;2023-07-13T03:59:45;98476.34;;;23.90;36.84
21433;BME280;18592;49.708;10.900;2023-07-13T04:01:45;98477.03;;;23.87;36.86
21433;BME280;18592;49.708;10.900;2023-07-13T04:03:56;98491.63;;;23.84;36.96
21433;BME280;18592;49.708;10.900;2023-07-13T04:06:02;98489.50;;;23.81;37.19
21433;BME280;18592;49.708;10.900;2023-07-13T04:08:03;98495.44;;;23.79;36.97
21433;BME280;18592;49.708;10.900;2023-07-13T04:10:07;98500.53;;;23.77;36.85
21433;BME280;18592;49.708;10.900;2023-07-13T04:12:15;98495.63;;;23.74;37.28
21433;BME280;18592;49.708;10.900;2023-07-13T04:14:17;98496.75;;;23.73;37.14
21433;BME280;18592;49.708;10.900;2023-07-13T04:16:18;98509.06;;;23.72;37.09
21433;BME280;18592;49.708;10.900;2023-07-13T04:18:19;98503.03;;;23.70;37.24
21433;BME280;18592;49.708;10.900;2023-07-13T04:20:20;98503.34;;;23.69;37.15
21433;BME280;18592;49.708;10.900;2023-07-13T04:22:22;98510.09;;;23.68;37.38
21433;BME280;18592;49.708;10.900;2023-07-13T04:24:22;98513.53;;;23.65;37.20
21433;BME280;18592;49.708;10.900;2023-07-13T04:26:23;98511.91;;;23.64;37.24
21433;BME280;18592;49.708;10.900;2023-07-13T04:28:24;98507.81;;;23.61;37.43
21433;BME280;18592;49.708;10.900;2023-07-13T04:30:25;98517.34;;;23.60;37.50
21433;BME280;18592;49.708;10.900;2023-07-13T04:32:26;98510.97;;;23.60;37.03
21433;BME280;18592;49.708;10.900;2023-07-13T04:34:27;98512.78;;;23.56;37.67
21433;BME280;18592;49.708;10.900;2023-07-13T04:36:28;98515.56;;;23.56;37.40
21433;BME280;18592;49.708;10.900;2023-07-13T04:38:30;98510.69;;;23.53;37.44
21433;BME280;18592;49.708;10.900;2023-07-13T04:40:30;98509.38;;;23.50;37.53
21433;BME280;18592;49.708;10.900;2023-07-13T04:42:31;98516.91;;;23.50;37.59
21433;BME280;18592;49.708;10.900;2023-07-13T04:44:39;98516.91;;;23.50;37.64
21433;BME280;18592;49.708;10.900;2023-07-13T04:46:39;98520.84;;;23.49;37.69
21433;BME280;18592;49.708;10.900;2023-07-13T04:48:40;98527.56;;;23.48;37.63
21433;BME280;18592;49.708;10.900;2023-07-13T04:50:41;98523.16;;;23.47;37.55
21433;BME280;18592;49.708;10.900;2023-07-13T04:52:41;98523.16;;;23.47;37.78
21433;BME280;18592;49.708;10.900;2023-07-13T04:54:42;98532.63;;;23.46;37.74
21433;BME280;18592;49.708;10.900;2023-07-13T04:56:42;98525.47;;;23.45;37.83
21433;BME280;18592;49.708;10.900;2023-07-13T04:58:43;98533.34;;;23.43;37.95
21433;BME280;18592;49.708;10.900;2023-07-13T05:00:49;98537.72;;;23.44;37.85
21433;BME280;18592;49.708;10.900;2023-07-13T05:02:56;98538.91;;;23.43;37.87
21433;BME280;18592;49.708;10.900;2023-07-13T05:04:57;98550.03;;;23.43;38.16
21433;BME280;18592;49.708;10.900;2023-07-13T05:06:59;98546.06;;;23.44;38.05
21433;BME280;18592;49.708;10.900;2023-07-13T05:08:59;98553.28;;;23.45;38.16
21433;BME280;18592;49.708;10.900;2023-07-13T05:11:01;98556.53;;;23.47;38.14
21433;BME280;18592;49.708;10.900;2023-07-13T05:13:02;98555.88;;;23.50;38.14
21433;BME280;18592;49.708;10.900;2023-07-13T05:15:03;98548.00;;;23.52;38.02
21433;BME280;18592;49.708;10.900;2023-07-13T05:17:04;98551.25;;;23.54;38.29
21433;BME280;18592;49.708;10.900;2023-07-13T05:19:05;98557.81;;;23.58;37.96
21433;BME280;18592;49.708;10.900;2023-07-13T05:21:08;98560.41;;;23.63;38.20
21433;BME280;18592;49.708;10.900;2023-07-13T05:23:09;98564.59;;;23.69;38.19
21433;BME280;18592;49.708;10.900;2023-07-13T05:25:27;98566.38;;;23.73;38.21
21433;BME280;18592;49.708;10.900;2023-07-13T05:27:27;98560.59;;;23.78;38.05
21433;BME280;18592;49.708;10.900;2023-07-13T05:29:28;98569.56;;;23.84;38.23
21433;BME280;18592;49.708;10.900;2023-07-13T05:31:28;98564.28;;;23.91;38.44
21433;BME280;18592;49.708;10.900;2023-07-13T05:33:28;98567.38;;;23.98;38.36
21433;BME280;18592;49.708;10.900;2023-07-13T05:35:29;98570.06;;;24.07;38.07
21433;BME280;18592;49.708;10.900;2023-07-13T05:37:29;98568.75;;;24.13;38.22
21433;BME280;18592;49.708;10.900;2023-07-13T05:39:29;98565.88;;;24.21;38.15
21433;BME280;18592;49.708;10.900;2023-07-13T05:41:30;98576.50;;;24.28;38.04
21433;BME280;18592;49.708;10.900;2023-07-13T05:43:30;98567.13;;;24.32;38.43
21433;BME280;18592;49.708;10.900;2023-07-13T05:45:42;98568.19;;;24.40;38.23
21433;BME280;18592;49.708;10.900;2023-07-13T05:47:43;98568.47;;;24.47;37.81
21433;BME280;18592;49.708;10.900;2023-07-13T05:49:44;98568.25;;;24.52;37.90
21433;BME280;18592;49.708;10.900;2023-07-13T05:51:45;98571.66;;;24.57;37.67
21433;BME280;18592;49.708;10.900;2023-07-13T05:53:46;98577.00;;;24.62;37.89
21433;BME280;18592;49.708;10.900;2023-07-13T06:06:39;98584.13;;;24.93;37.61
21433;BME280;18592;49.708;10.900;2023-07-13T06:08:43;98578.78;;;25.00;37.70
21433;BME280;18592;49.708;10.900;2023-07-13T06:10:49;98580.34;;;25.09;37.49
21433;BME280;18592;49.708;10.900;2023-07-13T06:12:51;98588.25;;;25.19;37.63
21433;BME280;18592;49.708;10.900;2023-07-13T06:14:52;98582.91;;;25.27;37.12
21433;BME280;18592;49.708;10.900;2023-07-13T06:16:52;98576.44;;;25.35;37.39
21433;BME280;18592;49.708;10.900;2023-07-13T06:18:53;98585.50;;;25.44;37.63
21433;BME280;18592;49.708;10.900;2023-07-13T06:20:53;98590.28;;;25.55;37.51
21433;BME280;18592;49.708;10.900;2023-07-13T06:22:53;98583.91;;;25.67;37.53
21433;BME280;18592;49.708;10.900;2023-07-13T06:24:54;98582.84;;;25.83;37.63
21433;BME280;18592;49.708;10.900;2023-07-13T06:26:54;98574.22;;;26.01;37.95
21433;BME280;18592;49.708;10.900;2023-07-13T06:28:54;98574.44;;;26.20;37.69
21433;BME280;18592;49.708;10.900;2023-07-13T06:30:55;98583.00;;;26.39;38.19
21433;BME280;18592;49.708;10.900;2023-07-13T06:33:05;98584.78;;;26.59;37.54
21433;BME280;18592;49.708;10.900;2023-07-13T06:35:20;98578.78;;;26.73;37.27
21433;BME280;18592;49.708;10.900;2023-07-13T06:37:21;98578.31;;;26.83;37.13
21433;BME280;18592;49.708;10.900;2023-07-13T06:39:21;98582.00;;;26.87;36.93
21433;BME280;18592;49.708;10.900;2023-07-13T06:41:21;98584.53;;;26.92;36.81
21433;BME280;18592;49.708;10.900;2023-07-13T06:43:24;98590.25;;;26.95;36.93
21433;BME280;18592;49.708;10.900;2023-07-13T06:45:25;98580.44;;;27.01;36.48
21433;BME280;18592;49.708;10.900;2023-07-13T06:47:25;98587.03;;;27.09;36.59
21433;BME280;18592;49.708;10.900;2023-07-13T06:49:26;98590.13;;;27.20;37.05
21433;BME280;18592;49.708;10.900;2023-07-13T06:51:26;98595.91;;;27.27;36.62
21433;BME280;18592;49.708;10.900;2023-07-13T06:53:27;98599.72;;;27.34;36.43
21433;BME280;18592;49.708;10.900;2023-07-13T06:55:43;98605.06;;;27.39;36.27
21433;BME280;18592;49.708;10.900;2023-07-13T06:57:45;98600.38;;;27.43;36.58
21433;BME280;18592;49.708;10.900;2023-07-13T06:59:45;98609.31;;;27.49;36.35
21433;BME280;18592;49.708;10.900;2023-07-13T07:01:46;98606.69;;;27.56;35.85
21433;BME280;18592;49.708;10.900;2023-07-13T07:03:55;98608.88;;;27.62;36.14
21433;BME280;18592;49.708;10.900;2023-07-13T07:06:10;98609.38;;;27.68;36.15
21433;BME280;18592;49.708;10.900;2023-07-13T07:08:12;98606.03;;;27.78;35.98
21433;BME280;18592;49.708;10.900;2023-07-13T07:10:12;98606.31;;;27.89;36.25
21433;BME280;18592;49.708;10.900;2023-07-13T07:12:12;98610.53;;;27.98;35.96
21433;BME280;18592;49.708;10.900;2023-07-13T07:14:13;98616.72;;;28.04;36.20
21433;BME280;18592;49.708;10.900;2023-07-13T07:16:16;98614.06;;;28.11;35.85
21433;BME280;18592;49.708;10.900;2023-07-13T07:18:16;98621.41;;;28.15;35.92
21433;BME280;18592;49.708;10.900;2023-07-13T07:20:17;98624.28;;;28.19;36.00
21433;BME280;18592;49.708;10.900;2023-07-13T07:22:17;98624.38;;;28.22;35.92
21433;BME280;18592;49.708;10.900;2023-07-13T07:24:17;98625.63;;;28.25;35.42
21433;BME280;18592;49.708;10.900;2023-07-13T07:26:18;98625.69;;;28.28;35.37
21433;BME280;18592;49.708;10.900;2023-07-13T07:28:32;98622.53;;;28.30;35.26
21433;BME280;18592;49.708;10.900;2023-07-13T07:30:49;98628.59;;;28.32;35.16
21433;BME280;18592;49.708;10.900;2023-07-13T07:33:14;98626.59;;;28.32;34.98
21433;BME280;18592;49.708;10.900;2023-07-13T07:35:14;98635.91;;;28.37;34.92
21433;BME280;18592;49.708;10.900;2023-07-13T07:37:16;98637.97;;;28.40;35.01
21433;BME280;18592;49.708;10.900;2023-07-13T07:39:16;98631.63;;;28.43;34.83
21433;BME280;18592;49.708;10.900;2023-07-13T07:41:17;98634.53;;;28.46;34.85
21433;BME280;18592;49.708;10.900;2023-07-13T07:43:21;98634.59;;;28.50;34.70
21433;BME280;18592;49.708;10.900;2023-07-13T07:45:21;98639.84;;;28.51;34.66
21433;BME280;18592;49.708;10.900;2023-07-13T07:47:22;98639.09;;;28.54;34.51
21433;BME280;18592;49.708;10.900;2023-07-13T07:49:34;98642.81;;;28.58;34.62
21433;BME280;18592;49.708;10.900;2023-07-13T07:51:43;98636.13;;;28.63;34.55
21433;BME280;18592;49.708;10.900;2023-07-13T07:53:44;98635.81;;;28.68;34.42
21433;BME280;18592;49.708;10.900;2023-07-13T07:55:44;98643.13;;;28.72;34.50
21433;BME280;18592;49.708;10.900;2023-07-13T07:57:45;98646.91;;;28.80;34.15
21433;BME280;18592;49.708;10.900;2023-07-13T07:59:45;98638.56;;;28.83;34.34
21433;BME280;18592;49.708;10.900;2023-07-13T08:01:46;98632.28;;;28.90;34.28
21433;BME280;18592;49.708;10.900;2023-07-13T08:03:50;98642.03;;;28.96;34.00
21433;BME280;18592;49.708;10.900;2023-07-13T08:05:53;98642.56;;;29.02;34.22
21433;BME280;18592;49.708;10.900;2023-07-13T08:07:54;98644.69;;;29.08;33.97
21433;BME280;18592;49.708;10.900;2023-07-13T08:09:54;98647.63;;;29.15;34.26
21433;BME280;18592;49.708;10.900;2023-07-13T08:11:55;98655.84;;;29.24;33.64
21433;BME280;18592;49.708;10.900;2023-07-13T08:13:55;98654.00;;;29.31;34.13
21433;BME280;18592;49.708;10.900;2023-07-13T08:15:55;98656.63;;;29.43;34.18
21433;BME280;18592;49.708;10.900;2023-07-13T08:17:56;98660.81;;;29.53;34.21
21433;BME280;18592;49.708;10.900;2023-07-13T08:19:56;98652.59;;;29.64;34.03
21433;BME280;18592;49.708;10.900;2023-07-13T08:21:57;98650.06;;;29.78;33.92
21433;BME280;18592;49.708;10.900;2023-07-13T08:23:59;98653.84;;;29.89;33.98
21433;BME280;18592;49.708;10.900;2023-07-13T08:25:59;98654.47;;;30.01;33.88
21433;BME280;18592;49.708;10.900;2023-07-13T08:28:03;98658.31;;;30.16;34.05
21433;BME280;18592;49.708;10.900;2023-07-13T08:30:09;98659.28;;;30.27;33.81
21433;BME280;18592;49.708;10.900;2023-07-13T08:32:10;98655.53;;;30.42;33.77
21433;BME280;18592;49.708;10.900;2023-07-13T08:34:11;98672.19;;;30.54;33.61
21433;BME280;18592;49.708;10.900;2023-07-13T08:36:11;98663.50;;;30.66;33.76
21433;BME280;18592;49.708;10.900;2023-07-13T08:38:11;98661.66;;;30.77;33.47
21433;BME280;18592;49.708;10.900;2023-07-13T08:40:12;98657.78;;;30.89;33.19
21433;BME280;18592;49.708;10.900;2023-07-13T08:42:33;98668.44;;;30.99;33.06
21433;BME280;18592;49.708;10.900;2023-07-13T08:44:44;98661.78;;;31.14;32.97
21433;BME280;18592;49.708;10.900;2023-07-13T08:46:51;98680.00;;;31.27;32.66
21433;BME280;18592;49.708;10.900;2023-07-13T08:49:13;98664.03;;;31.38;32.32
21433;BME280;18592;49.708;10.900;2023-07-13T08:53:23;98659.91;;;31.62;32.60
21433;BME280;18592;49.708;10.900;2023-07-13T08:55:31;98664.44;;;31.74;32.48
21433;BME280;18592;49.708;10.900;2023-07-13T08:57:37;98663.31;;;31.85;31.99
21433;BME280;18592;49.708;10.900;2023-07-13T08:59:40;98671.06;;;31.95;31.99
21433;BME280;18592;49.708;10.900;2023-07-13T09:02:00;98678.84;;;32.06;32.12
21433;BME280;18592;49.708;10.900;2023-07-13T09:04:11;98670.88;;;32.18;31.87
21433;BME280;18592;49.708;10.900;2023-07-13T09:06:16;98662.50;;;32.29;32.02
21433;BME280;18592;49.708;10.900;2023-07-13T09:08:54;98667.41;;;32.39;32.18
21433;BME280;18592;49.708;10.900;2023-07-13T09:12:02;98669.09;;;32.50;32.01
21433;BME280;18592;49.708;10.900;2023-07-13T09:15:49;98660.44;;;32.80;31.14
21433;BME280;18592;49.708;10.900;2023-07-13T09:17:52;98664.50;;;32.90;31.40
21433;BME280;18592;49.708;10.900;2023-07-13T09:20:32;98664.56;;;33.00;31.06
21433;BME280;18592;49.708;10.900;2023-07-13T09:22:37;98662.22;;;33.13;31.39
21433;BME280;18592;49.708;10.900;2023-07-13T09:24:41;98669.91;;;33.23;31.24
21433;BME280;18592;49.708;10.900;2023-07-13T09:26:47;98674.38;;;33.35;31.02
21433;BME280;18592;49.708;10.900;2023-07-13T09:28:52;98659.88;;;33.43;30.69
21433;BME280;18592;49.708;10.900;2023-07-13T09:33:17;98672.88;;;33.62;30.23
21433;BME280;18592;49.708;10.900;2023-07-13T09:35:23;98671.69;;;33.73;30.02
21433;BME280;18592;49.708;10.900;2023-07-13T09:37:29;98668.88;;;33.84;30.33
21433;BME280;18592;49.708;10.900;2023-07-13T09:39:38;98672.13;;;33.97;30.57
21433;BME280;18592;49.708;10.900;2023-07-13T09:41:59;98663.66;;;34.07;30.12
21433;BME280;18592;49.708;10.900;2023-07-13T09:44:15;98677.41;;;34.19;29.41
21433;BME280;18592;49.708;10.900;2023-07-13T09:46:22;98666.47;;;34.28;29.50
21433;BME280;18592;49.708;10.900;2023-07-13T09:48:22;98681.03;;;34.37;29.37
21433;BME280;18592;49.708;10.900;2023-07-13T09:50:24;98672.91;;;34.46;29.31
21433;BME280;18592;49.708;10.900;2023-07-13T09:52:25;98666.44;;;34.57;28.96
21433;BME280;18592;49.708;10.900;2023-07-13T09:54:27;98672.09;;;34.64;29.08
21433;BME280;18592;49.708;10.900;2023-07-13T09:56:29;98656.72;;;34.72;28.42
21433;BME280;18592;49.708;10.900;2023-07-13T09:58:30;98666.41;;;34.78;28.26
21433;BME280;18592;49.708;10.900;2023-07-13T10:00:33;98656.28;;;34.84;28.46
21433;BME280;18592;49.708;10.900;2023-07-13T10:02:35;98668.41;;;34.91;28.17
21433;BME280;18592;49.708;10.900;2023-07-13T10:04:37;98667.56;;;34.98;28.01
21433;BME280;18592;49.708;10.900;2023-07-13T10:06:38;98676.06;;;35.05;27.92
21433;BME280;18592;49.708;10.900;2023-07-13T10:08:56;98678.84;;;35.12;27.89
21433;BME280;18592;49.708;10.900;2023-07-13T10:11:02;98676.78;;;35.20;27.63
21433;BME280;18592;49.708;10.900;2023-07-13T10:13:44;98675.97;;;35.26;27.17
21433;BME280;18592;49.708;10.900;2023-07-13T10:15:45;98675.94;;;35.33;27.23
21433;BME280;18592;49.708;10.900;2023-07-13T10:17:46;98667.00;;;35.38;27.12
21433;BME280;18592;49.708;10.900;2023-07-13T10:19:47;98671.03;;;35.41;26.60
21433;BME280;18592;49.708;10.900;2023-07-13T10:21:59;98673.88;;;35.41;26.51
21433;BME280;18592;49.708;10.900;2023-07-13T10:24:15;98673.03;;;35.44;26.66
21433;BME280;18592;49.708;10.900;2023-07-13T10:26:23;98672.59;;;35.49;26.65
21433;BME280;18592;49.708;10.900;2023-07-13T10:28:29;98672.59;;;35.56;26.67
21433;BME280;18592;49.708;10.900;2023-07-13T10:30:34;98675.38;;;35.63;26.64
21433;BME280;18592;49.708;10.900;2023-07-13T10:32:35;98673.31;;;35.70;26.42
21433;BME280;18592;49.708;10.900;2023-07-13T10:34:36;98671.66;;;35.77;26.27
21433;BME280;18592;49.708;10.900;2023-07-13T10:36:44;98670.78;;;35.83;26.21
21433;BME280;18592;49.708;10.900;2023-07-13T10:38:46;98682.88;;;35.91;26.55
21433;BME280;18592;49.708;10.900;2023-07-13T10:40:59;98680.44;;;35.93;25.64
21433;BME280;18592;49.708;10.900;2023-07-13T10:43:05;98681.66;;;35.92;25.44
21433;BME280;18592;49.708;10.900;2023-07-13T10:45:13;98678.09;;;35.84;25.03
21433;BME280;18592;49.708;10.900;2023-07-13T10:47:16;98673.69;;;35.76;25.03
21433;BME280;18592;49.708;10.900;2023-07-13T10:49:18;98679.00;;;35.67;24.43
21433;BME280;18592;49.708;10.900;2023-07-13T10:51:20;98679.06;;;35.56;24.89
21433;BME280;18592;49.708;10.900;2023-07-13T10:53:31;98666.94;;;35.49;25.00
21433;BME280;18592;49.708;10.900;2023-07-13T10:58:02;98671.03;;;35.44;24.79
21433;BME280;18592;49.708;10.900;2023-07-13T11:00:16;98677.09;;;35.46;25.15
21433;BME280;18592;49.708;10.900;2023-07-13T11:02:25;98680.69;;;35.50;25.31
21433;BME280;18592;49.708;10.900;2023-07-13T11:04:27;98675.44;;;35.45;24.78
21433;BME280;18592;49.708;10.900;2023-07-13T11:06:36;98679.13;;;35.42;24.39
21433;BME280;18592;49.708;10.900;2023-07-13T11:10:56;98667.03;;;35.31;24.13
21433;BME280;18592;49.708;10.900;2023-07-13T11:12:57;98673.53;;;35.25;24.40
21433;BME280;18592;49.708;10.900;2023-07-13T11:19:37;98665.53;;;35.09;24.40
21433;BME280;18592;49.708;10.900;2023-07-13T11:24:16;98663.91;;;34.97;24.09
21433;BME280;18592;49.708;10.900;2023-07-13T11:28:42;98656.25;;;34.87;24.45
21433;BME280;18592;49.708;10.900;2023-07-13T11:35:13;98649.41;;;34.74;24.24
21433;BME280;18592;49.708;10.900;2023-07-13T11:37:22;98652.66;;;34.73;24.38
21433;BME280;18592;49.708;10.900;2023-07-13T11:39:30;98657.50;;;34.69;24.26
21433;BME280;18592;49.708;10.900;2023-07-13T11:41:46;98655.09;;;34.64;23.82
21433;BME280;18592;49.708;10.900;2023-07-13T11:43:54;98659.97;;;34.56;24.48
21433;BME280;18592;49.708;10.900;2023-07-13T11:45:55;98665.25;;;34.51;24.43
21433;BME280;18592;49.708;10.900;2023-07-13T11:47:56;98659.56;;;34.43;24.28
21433;BME280;18592;49.708;10.900;2023-07-13T11:50:18;98668.88;;;34.33;23.91